createdAt,value
2024-05-09T00:00:52.882Z,96.00
2024-05-09T00:03:23.995Z,95.65
2024-05-09T00:05:54.569Z,96.16
2024-05-09T00:08:26.100Z,95.54
2024-05-09T00:10:56.856Z,95.30
2024-05-09T00:13:27.969Z,97.34
2024-05-09T00:15:58.846Z,96.38
2024-05-09T00:18:30.140Z,96.62
2024-05-09T00:21:01.468Z,96.11
2024-05-09T00:23:32.799Z,96.31
2024-05-09T00:26:03.543Z,97.57
2024-05-09T00:28:34.402Z,97.22
2024-05-09T00:31:05.717Z,98.18
2024-05-09T00:33:36.848Z,96.94
2024-05-09T00:36:08.894Z,97.22
2024-05-09T00:38:39.773Z,96.37
2024-05-09T00:41:10.647Z,97.18
2024-05-09T00:43:42.492Z,97.93
2024-05-09T00:46:13.326Z,97.42
2024-05-09T00:48:44.617Z,98.23
2024-05-09T00:51:15.505Z,97.95
2024-05-09T00:53:47.736Z,98.88
2024-05-09T00:56:20.700Z,98.85
2024-05-09T00:58:53.574Z,98.26
2024-05-09T01:01:25.928Z,98.21
2024-05-09T01:03:57.397Z,98.09
2024-05-09T01:06:28.210Z,98.50
2024-05-09T01:08:59.379Z,98.47
2024-05-09T01:11:39.493Z,98.22
2024-05-09T01:14:10.683Z,98.85
2024-05-09T01:16:41.778Z,98.92
2024-05-09T01:19:25.360Z,98.87
2024-05-09T01:21:56.419Z,98.90
2024-05-09T01:24:27.359Z,97.97
2024-05-09T01:26:58.288Z,98.11
2024-05-09T01:29:29.241Z,99.06
2024-05-09T01:32:01.443Z,98.49
2024-05-09T01:34:32.776Z,99.06
2024-05-09T01:37:03.749Z,96.64
2024-05-09T01:39:34.577Z,97.00
2024-05-09T01:42:05.598Z,96.87
2024-05-09T01:44:36.732Z,95.94
2024-05-09T01:47:07.585Z,95.48
2024-05-09T01:49:39.605Z,96.49
2024-05-09T01:52:10.435Z,92.66
2024-05-09T01:54:41.965Z,92.68
2024-05-09T01:57:12.906Z,90.09
2024-05-09T01:59:43.753Z,89.82
2024-05-09T02:02:15.586Z,87.62
2024-05-09T02:04:49.750Z,87.78
2024-05-09T02:07:20.724Z,87.48
2024-05-09T02:09:55.197Z,85.00
2024-05-09T02:12:25.954Z,84.15
2024-05-09T02:14:57.276Z,81.85
2024-05-09T02:17:31.075Z,81.28
2024-05-09T02:20:02.738Z,80.11
2024-05-09T02:22:33.425Z,78.69
2024-05-09T02:25:04.589Z,78.62
2024-05-09T02:27:35.197Z,79.38
2024-05-09T02:30:15.130Z,77.27
2024-05-09T02:32:53.435Z,77.15
2024-05-09T02:35:24.813Z,76.64
2024-05-09T02:37:55.599Z,72.69
2024-05-09T02:40:35.497Z,73.66
2024-05-09T02:43:11.177Z,72.95
2024-05-09T02:45:43.678Z,74.94
2024-05-09T02:48:14.854Z,73.77
2024-05-09T02:50:46.345Z,75.42
2024-05-09T02:53:17.497Z,74.89
2024-05-09T02:55:49.040Z,74.79
2024-05-09T02:58:19.676Z,74.91
2024-05-09T03:00:51.498Z,76.14
2024-05-09T03:03:22.534Z,76.93
2024-05-09T03:05:53.949Z,77.90
2024-05-09T03:08:25.056Z,78.52
2024-05-09T03:10:56.248Z,79.19
2024-05-09T03:13:26.774Z,77.94
2024-05-09T03:15:57.883Z,78.89
2024-05-09T03:18:28.855Z,77.68
2024-05-09T03:20:59.788Z,77.76
2024-05-09T03:23:30.669Z,79.07
2024-05-09T03:26:01.729Z,78.90
2024-05-09T03:28:32.570Z,76.55
2024-05-09T03:31:03.341Z,74.92
2024-05-09T03:33:34.564Z,75.87
2024-05-09T03:36:09.762Z,76.52
2024-05-09T03:38:42.561Z,74.54
2024-05-09T03:41:14.735Z,76.61
2024-05-09T03:43:46.940Z,75.44
2024-05-09T03:46:17.735Z,74.91
2024-05-09T03:48:49.296Z,72.23
2024-05-09T03:51:20.063Z,73.35
2024-05-09T03:53:51.144Z,72.42
2024-05-09T03:56:22.088Z,72.03
2024-05-09T03:58:53.462Z,71.11
2024-05-09T04:01:27.151Z,73.16
2024-05-09T04:03:58.849Z,70.98
2024-05-09T04:06:29.705Z,71.83
2024-05-09T04:09:00.752Z,71.25
2024-05-09T04:11:31.819Z,70.93
2024-05-09T04:14:03.348Z,67.64
2024-05-09T04:16:34.166Z,69.53
2024-05-09T04:19:05.525Z,68.05
2024-05-09T04:21:36.377Z,69.43
2024-05-09T04:24:07.696Z,70.20
2024-05-09T04:26:38.545Z,66.61
2024-05-09T04:29:09.770Z,67.32
2024-05-09T04:31:40.775Z,64.84
2024-05-09T04:34:12.341Z,63.50
2024-05-09T04:36:44.480Z,62.74
2024-05-09T04:39:16.016Z,62.92
2024-05-09T04:41:46.800Z,63.15
2024-05-09T04:44:17.886Z,62.36
2024-05-09T04:46:51.008Z,64.19
2024-05-09T04:49:24.923Z,59.99
2024-05-09T04:51:55.969Z,62.29
2024-05-09T04:54:34.206Z,62.06
2024-05-09T04:57:07.430Z,59.89
2024-05-09T04:59:38.545Z,60.22
2024-05-09T05:02:10.287Z,59.43
2024-05-09T05:04:41.339Z,58.12
2024-05-09T05:07:12.916Z,57.13
2024-05-09T05:09:43.749Z,57.58
2024-05-09T05:12:33.120Z,61.37
2024-05-09T05:15:04.011Z,56.82
2024-05-09T05:17:35.982Z,54.17
2024-05-09T05:20:08.551Z,53.10
2024-05-09T05:22:39.767Z,56.50
2024-05-09T05:25:10.602Z,53.34
2024-05-09T05:27:42.337Z,55.08
2024-05-09T05:30:21.040Z,53.78
2024-05-09T05:32:56.582Z,52.12
2024-05-09T05:35:28.580Z,56.31
2024-05-09T05:38:00.068Z,55.09
2024-05-09T05:40:36.777Z,52.98
2024-05-09T05:43:12.947Z,53.24
2024-05-09T05:45:44.177Z,53.53
2024-05-09T05:48:19.466Z,51.60
2024-05-09T05:50:50.675Z,55.35
2024-05-09T05:53:21.740Z,51.89
2024-05-09T05:55:53.759Z,51.89
2024-05-09T05:58:25.027Z,52.88
2024-05-09T06:00:56.154Z,53.11
2024-05-09T06:03:28.025Z,51.39
2024-05-09T06:05:59.089Z,54.22
2024-05-09T06:08:30.700Z,53.25
2024-05-09T06:11:02.002Z,47.54
2024-05-09T06:13:33.117Z,51.13
2024-05-09T06:16:06.544Z,58.11
2024-05-09T06:18:37.840Z,52.52
2024-05-09T06:21:09.412Z,51.98
2024-05-09T06:23:51.165Z,52.69
2024-05-09T06:26:22.184Z,50.13
2024-05-09T06:28:53.695Z,51.98
2024-05-09T06:31:24.481Z,50.41
2024-05-09T06:33:56.247Z,54.31
2024-05-09T06:36:27.147Z,50.30
2024-05-09T06:38:58.518Z,48.49
2024-05-09T06:41:33.246Z,50.28
2024-05-09T06:44:06.223Z,48.77
2024-05-09T06:46:42.026Z,46.86
2024-05-09T06:49:15.599Z,49.88
2024-05-09T06:51:47.744Z,58.71
2024-05-09T06:54:20.752Z,48.00
2024-05-09T06:56:51.537Z,52.22
2024-05-09T06:59:22.798Z,52.49
2024-05-09T07:01:54.655Z,50.06
2024-05-09T07:04:26.678Z,49.43
2024-05-09T07:06:58.256Z,48.93
2024-05-09T07:09:29.894Z,49.21
2024-05-09T07:12:01.451Z,48.09
2024-05-09T07:14:33.949Z,46.13
2024-05-09T07:17:05.909Z,45.60
2024-05-09T07:19:37.174Z,48.23
2024-05-09T07:22:08.281Z,46.36
2024-05-09T07:24:40.433Z,47.22
2024-05-09T07:27:15.484Z,46.45
2024-05-09T07:29:46.539Z,45.92
2024-05-09T07:32:17.771Z,48.49
2024-05-09T07:34:48.846Z,47.32
2024-05-09T07:37:19.963Z,49.21
2024-05-09T07:39:50.732Z,45.74
2024-05-09T07:42:21.903Z,49.85
2024-05-09T07:44:52.994Z,51.61
2024-05-09T07:48:49.069Z,47.01
2024-05-09T07:53:34.824Z,51.51
2024-05-09T07:55:40.849Z,46.64
2024-05-09T07:58:12.648Z,47.54
2024-05-09T08:00:43.853Z,46.98
2024-05-09T08:03:15.450Z,48.78
2024-05-09T08:05:46.737Z,46.85
2024-05-09T08:08:17.824Z,45.56
2024-05-09T08:10:48.885Z,49.42
2024-05-09T08:13:20.526Z,46.07
2024-05-09T08:15:56.388Z,44.44
2024-05-09T08:18:27.945Z,44.25
2024-05-09T08:21:03.219Z,43.92
2024-05-09T08:23:34.487Z,44.70
2024-05-09T08:26:05.275Z,47.07
2024-05-09T08:28:38.638Z,45.53
2024-05-09T08:31:09.507Z,43.73
2024-05-09T08:33:49.994Z,42.91
2024-05-09T08:36:21.834Z,45.53
2024-05-09T08:38:53.088Z,42.93
2024-05-09T08:41:24.306Z,45.35
2024-05-09T08:44:06.421Z,43.18
2024-05-09T08:46:39.180Z,45.70
2024-05-09T08:49:10.550Z,41.89
2024-05-09T08:51:41.608Z,43.64
2024-05-09T08:54:13.014Z,45.12
2024-05-09T08:56:50.384Z,41.96
2024-05-09T08:59:30.750Z,42.58
2024-05-09T09:02:02.100Z,42.62
2024-05-09T09:04:38.097Z,42.26
2024-05-09T09:07:09.977Z,41.83
2024-05-09T09:09:48.087Z,45.65
2024-05-09T09:12:19.460Z,41.48
2024-05-09T09:14:50.771Z,42.21
2024-05-09T09:17:21.771Z,41.21
2024-05-09T09:19:53.519Z,42.49
2024-05-09T09:22:24.275Z,41.46
2024-05-09T09:24:55.445Z,42.95
2024-05-09T09:27:26.533Z,43.83
2024-05-09T09:30:00.122Z,48.10
2024-05-09T09:32:31.761Z,49.43
2024-05-09T09:35:03.261Z,47.04
2024-05-09T09:37:36.627Z,46.56
2024-05-09T09:40:13.326Z,49.25
2024-05-09T09:42:46.307Z,45.84
2024-05-09T09:45:18.924Z,44.36
2024-05-09T09:47:51.200Z,47.64
2024-05-09T09:50:27.970Z,45.95
2024-05-09T09:53:07.191Z,46.37
2024-05-09T09:55:39.869Z,45.50
2024-05-09T09:58:14.304Z,43.64
2024-05-09T10:00:49.206Z,41.75
2024-05-09T10:03:20.253Z,45.97
2024-05-09T10:05:52.541Z,46.05
2024-05-09T10:08:26.205Z,45.24
2024-05-09T10:10:59.282Z,41.67
2024-05-09T10:13:36.494Z,42.50
2024-05-09T10:16:12.295Z,44.75
2024-05-09T10:18:43.760Z,45.03
2024-05-09T10:21:20.491Z,42.49
2024-05-09T10:24:08.783Z,42.31
2024-05-09T10:26:41.406Z,43.60
2024-05-09T10:29:20.343Z,39.41
2024-05-09T10:31:51.380Z,42.33
2024-05-09T10:34:26.694Z,41.64
2024-05-09T10:36:58.893Z,42.26
2024-05-09T10:39:36.961Z,40.91
2024-05-09T10:42:12.850Z,40.80
2024-05-09T10:44:45.539Z,39.18
2024-05-09T10:47:17.839Z,42.00
2024-05-09T10:49:49.260Z,41.83
2024-05-09T10:52:26.799Z,38.39
2024-05-09T10:54:58.238Z,38.55
2024-05-09T10:57:40.041Z,40.89
2024-05-09T11:00:18.958Z,40.26
2024-05-09T11:02:55.828Z,38.56
2024-05-09T11:05:27.315Z,39.60
2024-05-09T11:07:58.659Z,41.70
2024-05-09T11:10:34.057Z,41.61
2024-05-09T11:13:05.861Z,42.71
2024-05-09T11:15:44.347Z,43.64
2024-05-09T11:18:30.631Z,44.68
2024-05-09T11:21:18.755Z,45.18
2024-05-09T11:23:56.046Z,44.14
2024-05-09T11:26:37.622Z,45.20
2024-05-09T11:29:09.134Z,45.01
2024-05-09T11:31:50.114Z,45.18
2024-05-09T11:34:21.781Z,43.17
2024-05-09T11:36:52.974Z,42.52
2024-05-09T11:39:24.535Z,39.49
2024-05-09T11:41:55.536Z,44.49
2024-05-09T11:44:27.155Z,43.89
2024-05-09T11:46:58.601Z,44.97
2024-05-09T11:49:30.298Z,44.70
2024-05-09T11:52:01.388Z,43.38
2024-05-09T11:54:33.538Z,43.78
2024-05-09T11:57:05.159Z,46.47
2024-05-09T11:59:37.259Z,47.36
2024-05-09T12:02:08.826Z,48.37
2024-05-09T12:04:41.040Z,49.24
2024-05-09T12:07:13.322Z,50.39
2024-05-09T12:09:45.125Z,49.80
2024-05-09T12:12:16.737Z,50.89
2024-05-09T12:14:47.942Z,50.98
2024-05-09T12:17:18.877Z,53.85
2024-05-09T12:19:50.440Z,52.86
2024-05-09T12:22:24.924Z,55.37
2024-05-09T12:24:56.278Z,53.60
2024-05-09T12:27:28.443Z,52.88
2024-05-09T12:30:00.807Z,52.10
2024-05-09T12:32:32.810Z,51.30
2024-05-09T12:35:03.800Z,51.15
2024-05-09T12:37:35.901Z,50.88
2024-05-09T12:40:15.816Z,48.76
2024-05-09T12:42:52.127Z,53.26
2024-05-09T12:45:23.693Z,52.57
2024-05-09T12:47:54.732Z,53.77
2024-05-09T12:50:32.471Z,54.42
2024-05-09T12:53:05.508Z,50.63
2024-05-09T12:55:48.373Z,52.48
2024-05-09T12:58:25.192Z,54.22
2024-05-09T13:00:56.685Z,56.79
2024-05-09T13:03:29.228Z,61.53
2024-05-09T13:06:00.789Z,60.23
2024-05-09T13:08:31.727Z,59.92
2024-05-09T13:11:03.845Z,61.98
2024-05-09T13:13:35.507Z,65.77
2024-05-09T13:16:07.089Z,64.17
2024-05-09T13:18:38.640Z,64.67
2024-05-09T13:21:09.847Z,66.76
2024-05-09T13:23:42.454Z,67.72
2024-05-09T13:26:13.154Z,65.92
2024-05-09T13:28:45.056Z,66.51
2024-05-09T13:31:16.718Z,70.87
2024-05-09T13:33:48.961Z,69.10
2024-05-09T13:36:20.817Z,68.48
2024-05-09T13:38:52.161Z,66.97
2024-05-09T13:41:27.937Z,65.60
2024-05-09T13:43:59.121Z,69.02
2024-05-09T13:46:30.905Z,70.18
2024-05-09T13:49:02.357Z,68.46
2024-05-09T13:51:33.809Z,68.37
2024-05-09T13:54:04.856Z,69.89
2024-05-09T13:56:39.669Z,72.31
2024-05-09T13:59:11.808Z,71.15
2024-05-09T14:01:43.568Z,70.88
2024-05-09T14:04:18.438Z,71.23
2024-05-09T14:06:53.761Z,72.09
2024-05-09T14:09:31.869Z,75.50
2024-05-09T14:12:09.729Z,74.45
2024-05-09T14:14:42.516Z,77.93
2024-05-09T14:17:15.176Z,78.01
2024-05-09T14:19:47.398Z,79.05
2024-05-09T14:22:18.859Z,79.87
2024-05-09T14:24:51.327Z,76.49
2024-05-09T14:27:22.843Z,75.64
2024-05-09T14:29:54.289Z,81.61
2024-05-09T14:32:25.908Z,83.84
2024-05-09T14:35:00.928Z,82.84
2024-05-09T14:37:32.055Z,83.23
2024-05-09T14:40:06.893Z,81.72
2024-05-09T14:42:40.050Z,84.25
2024-05-09T14:45:11.468Z,83.92
2024-05-09T14:47:46.301Z,84.83
2024-05-09T14:50:27.378Z,85.51
2024-05-09T14:53:05.352Z,83.22
2024-05-09T14:55:38.446Z,83.22
2024-05-09T14:58:16.766Z,83.24
2024-05-09T15:00:51.182Z,83.70
2024-05-09T15:03:30.628Z,84.15
2024-05-09T15:06:03.363Z,83.04
2024-05-09T15:08:34.711Z,84.22
2024-05-09T15:11:10.846Z,85.20
2024-05-09T15:13:43.314Z,87.95
2024-05-09T15:16:20.234Z,84.54
2024-05-09T15:18:52.794Z,87.40
2024-05-09T15:21:24.285Z,86.87
2024-05-09T15:23:55.610Z,85.53
2024-05-09T15:26:28.063Z,83.94
2024-05-09T15:28:59.889Z,83.18
2024-05-09T15:31:34.409Z,83.03
2024-05-09T15:34:05.939Z,79.75
2024-05-09T15:36:41.159Z,76.96
2024-05-09T15:39:19.432Z,71.72
2024-05-09T15:41:50.594Z,73.16
2024-05-09T15:44:22.202Z,70.93
2024-05-09T15:46:57.367Z,71.85
2024-05-09T15:49:28.618Z,70.65
2024-05-09T15:52:01.194Z,71.95
2024-05-09T15:54:32.386Z,70.99
2024-05-09T15:57:04.119Z,70.75
2024-05-09T15:59:35.805Z,71.02
2024-05-09T16:02:08.074Z,71.39
2024-05-09T16:04:39.985Z,72.09
2024-05-09T16:07:11.979Z,73.39
2024-05-09T16:09:43.305Z,73.58
2024-05-09T16:12:15.021Z,72.49
2024-05-09T16:14:48.632Z,72.42
2024-05-09T16:17:22.631Z,75.96
2024-05-09T16:19:53.740Z,71.35
2024-05-09T16:22:25.159Z,69.66
2024-05-09T16:24:56.249Z,72.63
2024-05-09T16:27:30.047Z,71.28
2024-05-09T16:30:07.276Z,68.51
2024-05-09T16:32:45.966Z,72.61
2024-05-09T16:35:17.669Z,73.14
2024-05-09T16:37:49.743Z,74.48
2024-05-09T16:40:30.378Z,72.34
2024-05-09T16:43:09.190Z,72.01
2024-05-09T16:45:43.048Z,71.54
2024-05-09T16:48:15.813Z,70.99
2024-05-09T16:50:46.929Z,70.45
2024-05-09T16:53:19.371Z,72.69
2024-05-09T16:55:50.730Z,70.86
2024-05-09T16:58:22.158Z,72.08
2024-05-09T17:00:53.406Z,73.09
2024-05-09T17:03:25.638Z,72.04
2024-05-09T17:05:56.919Z,72.05
2024-05-09T17:08:28.123Z,72.15
2024-05-09T17:11:02.850Z,73.75
2024-05-09T17:13:34.353Z,76.94
2024-05-09T17:16:05.910Z,74.91
2024-05-09T17:18:39.170Z,74.07
2024-05-09T17:21:10.470Z,73.99
2024-05-09T17:23:42.337Z,74.60
2024-05-09T17:26:13.793Z,74.55
2024-05-09T17:28:46.000Z,74.16
2024-05-09T17:31:17.050Z,72.37
2024-05-09T17:33:51.871Z,71.23
2024-05-09T17:36:24.885Z,72.06
2024-05-09T17:38:56.759Z,72.05
2024-05-09T17:41:28.220Z,72.37
2024-05-09T17:43:59.401Z,72.67
2024-05-09T17:46:30.786Z,72.96
2024-05-09T17:49:02.575Z,72.16
2024-05-09T17:51:39.999Z,72.43
2024-05-09T17:54:14.534Z,68.95
2024-05-09T17:56:46.071Z,69.78
2024-05-09T17:59:17.471Z,69.15
2024-05-09T18:01:48.751Z,69.56
2024-05-09T18:04:21.128Z,69.66
2024-05-09T18:06:52.216Z,71.58
2024-05-09T18:09:23.575Z,73.81
2024-05-09T18:11:54.598Z,70.08
2024-05-09T18:14:25.703Z,71.96
2024-05-09T18:16:56.624Z,70.58
2024-05-09T18:19:27.863Z,71.43
2024-05-09T18:21:59.008Z,64.84
2024-05-09T18:24:31.495Z,65.68
2024-05-09T18:27:02.216Z,65.59
2024-05-09T18:29:34.195Z,63.76
2024-05-09T18:32:05.040Z,64.78
2024-05-09T18:34:36.231Z,64.02
2024-05-09T18:37:07.441Z,62.41
2024-05-09T18:39:38.637Z,64.96
2024-05-09T18:42:10.296Z,65.21
2024-05-09T18:44:41.049Z,63.82
2024-05-09T18:47:12.944Z,65.64
2024-05-09T18:49:44.683Z,65.85
2024-05-09T18:52:16.116Z,65.97
2024-05-09T18:54:46.970Z,64.41
2024-05-09T18:57:17.537Z,64.42
2024-05-09T18:59:48.333Z,63.94
2024-05-09T19:02:19.479Z,65.33
2024-05-09T19:04:54.652Z,66.05
2024-05-09T19:07:25.745Z,66.81
2024-05-09T19:09:56.610Z,67.85
2024-05-09T19:12:27.443Z,67.56
2024-05-09T19:14:58.310Z,69.09
2024-05-09T19:17:31.363Z,68.78
2024-05-09T19:20:02.829Z,66.75
2024-05-09T19:22:34.134Z,68.43
2024-05-09T19:25:05.282Z,68.33
2024-05-09T19:27:36.057Z,69.05
2024-05-09T19:30:17.392Z,68.65
2024-05-09T19:32:55.192Z,69.15
2024-05-09T19:35:26.796Z,70.08
2024-05-09T19:37:57.532Z,69.78
2024-05-09T19:40:32.078Z,71.30
2024-05-09T19:43:05.956Z,70.46
2024-05-09T19:45:37.668Z,69.79
2024-05-09T19:48:09.133Z,69.73
2024-05-09T19:50:43.615Z,69.47
2024-05-09T19:53:15.963Z,69.90
2024-05-09T19:55:46.845Z,71.84
2024-05-09T19:58:17.940Z,72.75
2024-05-09T20:00:49.543Z,73.33
2024-05-09T20:03:20.855Z,72.23
2024-05-09T20:05:51.712Z,73.74
2024-05-09T20:08:22.473Z,73.42
2024-05-09T20:10:53.436Z,75.45
2024-05-09T20:13:24.557Z,74.45
2024-05-09T20:15:55.485Z,73.44
2024-05-09T20:18:26.477Z,74.79
2024-05-09T20:20:57.868Z,76.70
2024-05-09T20:23:28.756Z,75.35
2024-05-09T20:26:00.267Z,74.32
2024-05-09T20:28:31.744Z,76.08
2024-05-09T20:31:04.811Z,78.62
2024-05-09T20:33:35.442Z,78.55
2024-05-09T20:36:07.719Z,77.51
2024-05-09T20:38:38.288Z,76.90
2024-05-09T20:41:09.137Z,76.50
2024-05-09T20:43:39.915Z,77.55
2024-05-09T20:46:11.062Z,75.99
2024-05-09T20:48:42.113Z,79.40
2024-05-09T20:51:13.152Z,79.00
2024-05-09T20:53:44.156Z,77.59
2024-05-09T20:56:14.723Z,79.14
2024-05-09T20:58:49.286Z,77.09
2024-05-09T21:01:21.675Z,76.61
2024-05-09T21:03:52.835Z,76.90
2024-05-09T21:06:23.877Z,75.99
2024-05-09T21:08:55.664Z,75.81
2024-05-09T21:11:26.664Z,75.99
2024-05-09T21:13:57.580Z,75.96
2024-05-09T21:16:28.343Z,76.86
2024-05-09T21:18:59.572Z,78.13
2024-05-09T21:21:30.141Z,76.29
2024-05-09T21:24:01.746Z,77.10
2024-05-09T21:26:32.310Z,78.50
2024-05-09T21:29:03.111Z,76.02
2024-05-09T21:31:34.079Z,76.53
2024-05-09T21:34:05.076Z,75.83
2024-05-09T21:36:35.774Z,77.46
2024-05-09T21:39:06.566Z,77.10
2024-05-09T21:41:37.290Z,76.98
2024-05-09T21:44:08.519Z,76.53
2024-05-09T21:46:39.490Z,77.56
2024-05-09T21:49:10.391Z,78.95
2024-05-09T21:51:41.314Z,76.93
2024-05-09T21:54:12.263Z,77.73
2024-05-09T21:56:43.207Z,76.40
2024-05-09T21:59:13.646Z,77.94
2024-05-09T22:01:44.532Z,75.92
2024-05-09T22:04:15.514Z,77.07
2024-05-09T22:06:46.575Z,76.71
2024-05-09T22:09:17.867Z,78.02
2024-05-09T22:11:51.418Z,78.50
2024-05-09T22:14:23.349Z,78.73
2024-05-09T22:16:54.214Z,78.04
2024-05-09T22:19:25.117Z,79.13
2024-05-09T22:21:56.928Z,77.68
2024-05-09T22:24:27.676Z,77.21
2024-05-09T22:26:58.726Z,78.78
2024-05-09T22:29:29.373Z,81.38
2024-05-09T22:32:00.277Z,79.81
2024-05-09T22:34:31.318Z,80.54
2024-05-09T22:37:02.370Z,78.63
2024-05-09T22:39:33.499Z,79.07
2024-05-09T22:42:04.202Z,79.88
2024-05-09T22:44:35.613Z,81.78
2024-05-09T22:47:07.010Z,81.67
2024-05-09T22:49:37.847Z,82.02
2024-05-09T22:52:09.497Z,81.67
2024-05-09T22:54:40.289Z,81.73
2024-05-09T22:57:11.725Z,81.57
2024-05-09T22:59:42.488Z,84.58
2024-05-09T23:02:13.544Z,83.30
2024-05-09T23:04:44.529Z,84.43
2024-05-09T23:07:15.590Z,84.48
2024-05-09T23:09:50.097Z,84.26
2024-05-09T23:12:21.015Z,84.13
2024-05-09T23:14:51.831Z,83.40
2024-05-09T23:17:22.800Z,83.59
2024-05-09T23:19:53.652Z,86.14
2024-05-09T23:22:24.741Z,83.62
2024-05-09T23:24:55.840Z,85.39
2024-05-09T23:27:27.707Z,84.73
2024-05-09T23:29:58.903Z,84.40
2024-05-09T23:32:30.000Z,84.73
2024-05-09T23:35:01.742Z,85.81
2024-05-09T23:37:32.745Z,84.97
2024-05-09T23:40:06.891Z,86.42
2024-05-09T23:42:38.050Z,86.59
2024-05-09T23:45:09.715Z,87.24
2024-05-09T23:47:40.817Z,86.74
2024-05-09T23:50:16.918Z,86.60
2024-05-09T23:52:54.431Z,88.38
2024-05-09T23:55:25.566Z,88.06
2024-05-09T23:57:56.479Z,87.43
